createdAt,value
2018-04-16T00:00:51.357Z,91.10
2018-04-16T00:03:19.913Z,91.00
2018-04-16T00:05:48.136Z,91.10
2018-04-16T00:08:15.583Z,91.10
2018-04-16T00:10:43.114Z,91.10
2018-04-16T00:13:10.642Z,91.10
2018-04-16T00:15:38.096Z,91.20
2018-04-16T00:18:05.596Z,91.10
2018-04-16T00:20:33.449Z,91.20
2018-04-16T00:23:01.672Z,91.30
2018-04-16T00:25:29.216Z,91.30
2018-04-16T00:27:56.726Z,91.30
2018-04-16T00:30:24.210Z,91.40
2018-04-16T00:32:58.702Z,91.40
2018-04-16T00:35:31.885Z,91.50
2018-04-16T00:38:07.336Z,91.80
2018-04-16T00:40:40.390Z,91.60
2018-04-16T00:43:13.532Z,91.60
2018-04-16T00:45:48.585Z,91.70
2018-04-16T00:48:21.752Z,91.70
2018-04-16T00:50:56.583Z,91.70
2018-04-16T00:53:43.053Z,91.70
2018-04-16T00:56:16.280Z,91.70
2018-04-16T00:58:50.520Z,91.70
2018-04-16T01:01:31.140Z,91.60
2018-04-16T01:04:04.335Z,91.70
2018-04-16T01:06:37.585Z,91.70
2018-04-16T01:09:10.811Z,91.70
2018-04-16T01:11:43.910Z,91.80
2018-04-16T01:14:17.101Z,91.80
2018-04-16T01:16:50.318Z,91.80
2018-04-16T01:19:23.532Z,91.80
2018-04-16T01:21:56.683Z,91.90
2018-04-16T01:24:29.940Z,91.90
2018-04-16T01:27:03.169Z,91.90
2018-04-16T01:29:36.356Z,91.90
2018-04-16T01:32:09.626Z,91.90
2018-04-16T01:34:43.960Z,91.90
2018-04-16T01:37:17.173Z,91.90
2018-04-16T01:39:50.481Z,92.00
2018-04-16T01:42:23.703Z,92.00
2018-04-16T01:47:53.635Z,92.10
2018-04-16T01:50:26.861Z,92.10
2018-04-16T01:53:00.036Z,92.10
2018-04-16T01:55:33.247Z,92.10
2018-04-16T01:58:06.388Z,92.10
2018-04-16T02:00:40.506Z,92.10
2018-04-16T02:06:10.146Z,92.30
2018-04-16T02:08:43.240Z,92.40
2018-04-16T02:11:16.472Z,92.30
2018-04-16T02:13:49.642Z,92.40
2018-04-16T02:16:22.891Z,92.30
2018-04-16T02:18:56.871Z,92.30
2018-04-16T02:21:30.275Z,92.30
2018-04-16T02:24:03.392Z,92.30
2018-04-16T02:26:37.359Z,92.30
2018-04-16T02:29:10.566Z,92.20
2018-04-16T02:31:58.752Z,92.30
2018-04-16T02:34:32.096Z,92.30
2018-04-16T02:37:05.565Z,92.20
2018-04-16T02:39:38.691Z,92.20
2018-04-16T02:42:23.958Z,92.20
2018-04-16T02:44:57.122Z,92.20
2018-04-16T02:47:30.219Z,92.20
2018-04-16T02:50:03.656Z,92.20
2018-04-16T02:52:36.901Z,92.80
2018-04-16T02:55:10.047Z,92.80
2018-04-16T02:57:43.393Z,92.80
2018-04-16T03:00:16.504Z,92.70
2018-04-16T03:02:49.809Z,92.70
2018-04-16T03:05:23.069Z,92.70
2018-04-16T03:07:56.301Z,93.00
2018-04-16T03:10:29.472Z,92.80
2018-04-16T03:13:02.680Z,92.80
2018-04-16T03:15:35.823Z,92.80
2018-04-16T03:18:10.223Z,92.80
2018-04-16T03:20:44.011Z,92.90
2018-04-16T03:23:17.392Z,92.90
2018-04-16T03:25:50.416Z,92.90
2018-04-16T03:28:23.600Z,92.90
2018-04-16T03:30:57.568Z,93.00
2018-04-16T03:33:30.792Z,92.90
2018-04-16T03:36:04.031Z,92.90
2018-04-16T03:38:37.149Z,92.90
2018-04-16T03:41:10.383Z,93.00
2018-04-16T03:43:44.481Z,93.10
2018-04-16T03:46:17.643Z,93.00
2018-04-16T03:48:50.928Z,93.00
2018-04-16T03:51:18.997Z,93.00
2018-04-16T03:53:46.575Z,93.00
2018-04-16T03:56:15.013Z,92.90
2018-04-16T03:58:42.563Z,93.00
2018-04-16T04:01:10.003Z,93.00
2018-04-16T04:03:37.526Z,93.00
2018-04-16T04:06:05.007Z,93.00
2018-04-16T04:08:32.420Z,93.00
2018-04-16T04:10:59.916Z,93.00
2018-04-16T04:13:27.344Z,93.10
2018-04-16T04:15:54.834Z,93.20
2018-04-16T04:18:22.284Z,93.30
2018-04-16T04:23:59.264Z,93.40
2018-04-16T04:26:38.701Z,93.40
2018-04-16T04:29:18.116Z,93.40
2018-04-16T04:31:45.564Z,93.50
2018-04-16T04:34:13.884Z,93.50
2018-04-16T04:36:41.344Z,93.50
2018-04-16T04:42:13.209Z,93.60
2018-04-16T04:44:40.823Z,93.50
2018-04-16T04:47:08.280Z,93.40
2018-04-16T04:49:36.861Z,93.50
2018-04-16T04:52:04.328Z,93.40
2018-04-16T04:54:32.597Z,93.40
2018-04-16T04:57:00.305Z,93.30
2018-04-16T04:59:27.780Z,93.30
2018-04-16T05:01:55.672Z,93.30
2018-04-16T05:04:23.151Z,93.30
2018-04-16T05:06:55.548Z,93.30
2018-04-16T05:09:23.000Z,93.40
2018-04-16T05:11:50.542Z,93.30
2018-04-16T05:14:18.757Z,93.50
2018-04-16T05:16:46.397Z,93.50
2018-04-16T05:19:13.848Z,93.50
2018-04-16T05:21:41.340Z,93.50
2018-04-16T05:24:10.218Z,93.50
2018-04-16T05:26:37.956Z,93.50
2018-04-16T05:29:06.219Z,93.50
2018-04-16T05:31:34.489Z,93.50
2018-04-16T05:34:02.130Z,93.50
2018-04-16T05:36:29.685Z,93.50
2018-04-16T05:38:59.204Z,93.40
2018-04-16T05:41:27.043Z,93.40
2018-04-16T05:43:54.649Z,93.40
2018-04-16T05:46:23.204Z,93.40
2018-04-16T05:48:51.594Z,93.40
2018-04-16T05:54:23.285Z,93.40
2018-04-16T05:56:50.741Z,93.30
2018-04-16T05:59:18.196Z,93.30
2018-04-16T06:01:56.019Z,93.30
2018-04-16T06:04:24.344Z,93.50
2018-04-16T06:06:51.909Z,93.50
2018-04-16T06:09:19.431Z,93.50
2018-04-16T06:11:46.919Z,93.80
2018-04-16T06:14:14.479Z,93.60
2018-04-16T06:16:42.029Z,93.70
2018-04-16T06:19:10.457Z,93.70
2018-04-16T06:21:37.974Z,93.60
2018-04-16T06:30:09.173Z,93.30
2018-04-16T06:32:36.621Z,93.60
2018-04-16T06:35:04.930Z,93.10
2018-04-16T06:37:32.396Z,93.50
2018-04-16T06:40:10.696Z,93.30
2018-04-16T06:42:38.169Z,93.00
2018-04-16T06:45:05.792Z,93.00
2018-04-16T06:47:34.051Z,93.00
2018-04-16T06:50:02.956Z,93.00
2018-04-16T06:52:35.827Z,93.10
2018-04-16T06:55:03.523Z,93.20
2018-04-16T06:57:31.681Z,93.10
2018-04-16T06:59:59.149Z,93.20
2018-04-16T07:02:26.854Z,93.20
2018-04-16T07:04:54.354Z,93.30
2018-04-16T07:07:21.832Z,93.40
2018-04-16T07:09:49.328Z,93.40
2018-04-16T07:12:16.948Z,93.40
2018-04-16T07:14:44.455Z,93.50
2018-04-16T07:17:11.951Z,93.50
2018-04-16T07:19:39.849Z,93.50
2018-04-16T07:22:07.340Z,93.50
2018-04-16T07:24:34.805Z,93.50
2018-04-16T07:27:02.310Z,93.40
2018-04-16T07:29:29.774Z,93.40
2018-04-16T07:31:57.432Z,93.40
2018-04-16T07:34:24.904Z,93.40
2018-04-16T07:36:52.367Z,93.50
2018-04-16T07:39:19.900Z,93.40
2018-04-16T07:41:47.355Z,93.40
2018-04-16T07:44:18.736Z,93.30
2018-04-16T07:46:47.232Z,93.00
2018-04-16T07:49:15.479Z,92.70
2018-04-16T07:51:43.080Z,92.70
2018-04-16T07:54:10.600Z,92.70
2018-04-16T07:56:38.108Z,92.50
2018-04-16T07:59:05.580Z,92.40
2018-04-16T08:01:33.078Z,92.50
2018-04-16T08:04:00.735Z,92.30
2018-04-16T08:06:28.186Z,92.30
2018-04-16T08:08:55.672Z,92.30
2018-04-16T08:11:23.957Z,92.00
2018-04-16T08:13:54.232Z,91.90
2018-04-16T08:16:21.820Z,91.80
2018-04-16T08:18:49.452Z,91.70
2018-04-16T08:21:17.004Z,91.70
2018-04-16T08:23:44.605Z,91.70
2018-04-16T08:26:12.058Z,91.70
2018-04-16T08:28:39.519Z,91.70
2018-04-16T08:31:07.040Z,91.60
2018-04-16T08:33:34.543Z,91.90
2018-04-16T08:36:02.029Z,91.50
2018-04-16T08:38:29.689Z,91.40
2018-04-16T08:40:57.152Z,91.30
2018-04-16T08:43:24.626Z,91.20
2018-04-16T08:45:52.152Z,91.00
2018-04-16T08:48:20.394Z,91.00
2018-04-16T08:50:47.854Z,90.90
2018-04-16T08:56:05.899Z,90.80
2018-04-16T08:58:35.848Z,90.80
2018-04-16T09:01:03.288Z,90.70
2018-04-16T09:03:30.760Z,90.50
2018-04-16T09:08:49.213Z,90.10
2018-04-16T09:11:16.670Z,89.90
2018-04-16T09:13:44.119Z,89.60
2018-04-16T09:16:11.637Z,88.90
2018-04-16T09:18:39.092Z,88.30
2018-04-16T09:21:06.628Z,87.70
2018-04-16T09:23:34.891Z,87.10
2018-04-16T09:26:02.355Z,87.00
2018-04-16T09:28:29.979Z,86.80
2018-04-16T09:30:57.429Z,86.60
2018-04-16T09:33:25.466Z,86.50
2018-04-16T09:35:53.064Z,86.30
2018-04-16T09:38:20.550Z,86.00
2018-04-16T09:40:48.050Z,85.40
2018-04-16T09:43:15.561Z,85.00
2018-04-16T09:45:43.039Z,84.60
2018-04-16T09:48:10.487Z,84.40
2018-04-16T09:50:40.619Z,83.80
2018-04-16T09:53:08.856Z,82.60
2018-04-16T09:55:36.407Z,82.50
2018-04-16T09:58:03.966Z,82.20
2018-04-16T10:00:37.221Z,81.20
2018-04-16T10:03:05.476Z,80.50
2018-04-16T10:05:33.061Z,80.40
2018-04-16T10:08:00.586Z,80.40
2018-04-16T10:16:17.895Z,80.30
2018-04-16T10:18:45.425Z,79.80
2018-04-16T10:21:14.604Z,79.20
2018-04-16T10:23:42.096Z,79.10
2018-04-16T10:26:09.647Z,79.70
2018-04-16T10:28:37.921Z,79.60
2018-04-16T10:31:06.419Z,79.00
2018-04-16T10:33:35.948Z,78.90
2018-04-16T10:36:03.513Z,78.20
2018-04-16T10:38:30.992Z,78.10
2018-04-16T10:40:58.524Z,77.60
2018-04-16T10:43:25.950Z,76.80
2018-04-16T10:45:53.440Z,76.70
2018-04-16T10:48:20.953Z,76.50
2018-04-16T10:50:49.109Z,76.30
2018-04-16T10:53:16.693Z,75.50
2018-04-16T10:55:44.956Z,74.70
2018-04-16T10:58:12.478Z,75.20
2018-04-16T11:00:39.953Z,74.10
2018-04-16T11:03:07.447Z,73.20
2018-04-16T11:05:57.673Z,72.20
2018-04-16T11:08:25.297Z,72.20
2018-04-16T11:10:53.668Z,72.30
2018-04-16T11:13:21.232Z,72.20
2018-04-16T11:15:48.721Z,72.50
2018-04-16T11:18:16.211Z,72.50
2018-04-16T11:20:43.695Z,72.30
2018-04-16T11:23:15.850Z,71.60
2018-04-16T11:25:44.113Z,71.40
2018-04-16T11:28:11.589Z,71.00
2018-04-16T11:30:39.130Z,70.20
2018-04-16T11:33:06.619Z,69.00
2018-04-16T11:35:34.106Z,68.80
2018-04-16T11:38:01.717Z,68.50
2018-04-16T11:40:29.111Z,68.00
2018-04-16T11:42:56.588Z,67.80
2018-04-16T11:45:24.228Z,67.40
2018-04-16T11:47:52.522Z,67.10
2018-04-16T11:50:20.133Z,67.00
2018-04-16T11:52:48.484Z,66.10
2018-04-16T11:55:16.968Z,66.00
2018-04-16T11:57:45.149Z,65.50
2018-04-16T12:00:13.581Z,64.60
2018-04-16T12:02:42.654Z,64.20
2018-04-16T12:05:10.289Z,64.20
2018-04-16T12:07:37.888Z,64.10
2018-04-16T12:10:06.361Z,63.30
2018-04-16T12:12:33.866Z,63.20
2018-04-16T12:15:01.958Z,62.50
2018-04-16T12:17:31.241Z,61.60
2018-04-16T12:20:00.061Z,61.40
2018-04-16T12:22:27.707Z,61.10
2018-04-16T12:33:24.997Z,59.10
2018-04-16T12:35:52.551Z,59.00
2018-04-16T12:38:20.089Z,58.80
2018-04-16T12:40:48.482Z,58.40
2018-04-16T12:43:16.034Z,58.40
2018-04-16T12:45:44.473Z,58.50
2018-04-16T12:48:12.004Z,58.40
2018-04-16T12:50:39.738Z,58.10
2018-04-16T12:53:08.066Z,58.40
2018-04-16T12:55:35.762Z,58.20
2018-04-16T12:58:03.246Z,59.00
2018-04-16T13:00:34.660Z,58.80
2018-04-16T13:03:03.944Z,58.60
2018-04-16T13:05:31.396Z,58.50
2018-04-16T13:07:58.903Z,57.90
2018-04-16T13:10:26.383Z,57.30
2018-04-16T13:12:53.941Z,56.70
2018-04-16T13:15:21.434Z,56.50
2018-04-16T13:20:41.394Z,55.80
2018-04-16T13:23:09.689Z,55.60
2018-04-16T13:25:37.221Z,55.60
2018-04-16T13:28:04.697Z,55.00
2018-04-16T13:30:32.231Z,54.90
2018-04-16T13:32:59.721Z,54.80
2018-04-16T13:35:31.173Z,54.70
2018-04-16T13:37:58.729Z,54.60
2018-04-16T13:40:26.236Z,54.10
2018-04-16T13:42:53.858Z,54.10
2018-04-16T13:45:21.335Z,54.20
2018-04-16T13:47:52.947Z,54.00
2018-04-16T14:02:03.785Z,53.20
2018-04-16T14:04:34.547Z,53.60
2018-04-16T14:07:25.936Z,53.60
2018-04-16T14:09:53.510Z,53.70
2018-04-16T14:12:21.750Z,53.40
2018-04-16T14:14:58.337Z,53.30
2018-04-16T14:17:25.909Z,53.50
2018-04-16T14:19:54.200Z,53.40
2018-04-16T14:33:57.176Z,54.10
2018-04-16T14:47:40.731Z,53.30
2018-04-16T14:50:10.683Z,53.40
2018-04-16T14:52:38.618Z,53.20
2018-04-16T14:55:07.441Z,53.10
2018-04-16T14:57:35.318Z,53.00
2018-04-16T15:00:03.512Z,52.90
2018-04-16T15:02:31.234Z,52.90
2018-04-16T15:04:59.884Z,52.60
2018-04-16T15:07:28.922Z,52.60
2018-04-16T15:09:56.658Z,52.50
2018-04-16T15:12:24.430Z,52.80
2018-04-16T15:14:52.556Z,53.30
2018-04-16T15:17:20.817Z,53.40
2018-04-16T15:19:49.354Z,53.00
2018-04-16T15:22:17.258Z,52.90
2018-04-16T15:24:45.169Z,52.80
2018-04-16T15:27:13.877Z,52.50
2018-04-16T15:29:41.529Z,52.00
2018-04-16T15:32:10.127Z,52.00
2018-04-16T15:34:38.094Z,52.00
2018-04-16T15:37:10.017Z,52.10
2018-04-16T15:45:32.192Z,53.10
2018-04-16T15:48:01.070Z,52.80
2018-04-16T15:50:29.405Z,52.30
2018-04-16T15:52:57.585Z,52.30
2018-04-16T15:55:46.537Z,51.80
2018-04-16T15:58:14.165Z,51.60
2018-04-16T16:00:41.710Z,51.60
2018-04-16T16:03:23.796Z,51.40
2018-04-16T16:11:54.974Z,51.20
2018-04-16T16:14:24.185Z,51.50
2018-04-16T16:16:57.238Z,51.40
2018-04-16T16:22:39.553Z,51.00
2018-04-16T16:25:07.125Z,51.40
2018-04-16T16:27:34.625Z,51.50
2018-04-16T16:47:10.278Z,51.10
2018-04-16T16:49:38.032Z,51.00
2018-04-16T16:52:05.892Z,51.00
2018-04-16T17:00:38.742Z,52.10
2018-04-16T17:03:06.580Z,51.80
2018-04-16T17:05:34.265Z,51.90
2018-04-16T17:08:02.787Z,52.00
2018-04-16T17:10:30.495Z,51.90
2018-04-16T17:12:58.317Z,52.10
2018-04-16T17:15:28.066Z,52.40
2018-04-16T17:17:55.880Z,52.60
2018-04-16T17:20:25.284Z,52.70
2018-04-16T17:22:52.886Z,53.00
2018-04-16T17:25:20.419Z,53.30
2018-04-16T17:27:54.835Z,53.50
2018-04-16T17:30:22.361Z,53.60
2018-04-16T17:32:50.763Z,54.90
2018-04-16T17:35:23.333Z,54.80
2018-04-16T17:37:50.884Z,55.30
2018-04-16T17:40:18.366Z,55.90
2018-04-16T17:42:45.940Z,56.10
2018-04-16T17:45:14.864Z,56.30
2018-04-16T17:47:44.047Z,56.80
2018-04-16T17:50:11.644Z,56.70
2018-04-16T17:55:52.514Z,57.00
2018-04-16T17:58:28.350Z,57.40
2018-04-16T18:00:56.677Z,57.50
2018-04-16T18:03:29.771Z,57.80
2018-04-16T18:08:52.128Z,58.80
2018-04-16T18:11:20.456Z,58.80
2018-04-16T18:13:47.991Z,59.40
2018-04-16T18:16:15.541Z,59.00
2018-04-16T18:18:43.127Z,59.40
2018-04-16T18:21:10.652Z,59.60
2018-04-16T18:23:38.392Z,59.50
2018-04-16T18:26:06.739Z,59.50
2018-04-16T18:28:34.247Z,59.50
2018-04-16T18:31:01.845Z,59.30
2018-04-16T18:33:29.332Z,59.50
2018-04-16T18:35:56.884Z,59.90
2018-04-16T18:38:27.933Z,60.30
2018-04-16T18:40:55.435Z,60.60
2018-04-16T18:43:22.933Z,61.00
2018-04-16T18:45:50.421Z,61.30
2018-04-16T18:48:17.883Z,61.50
2018-04-16T18:50:45.429Z,61.60
2018-04-16T18:53:13.258Z,61.90
2018-04-16T18:55:40.723Z,62.00
2018-04-16T18:58:08.284Z,62.30
2018-04-16T19:00:35.777Z,62.50
2018-04-16T19:03:03.243Z,62.70
2018-04-16T19:05:30.810Z,62.80
2018-04-16T19:07:58.290Z,63.80
2018-04-16T19:10:26.528Z,63.50
2018-04-16T19:12:54.117Z,63.50
2018-04-16T19:15:21.623Z,63.60
2018-04-16T19:17:54.795Z,63.80
2018-04-16T19:20:30.587Z,64.00
2018-04-16T19:22:59.486Z,64.40
2018-04-16T19:42:43.429Z,65.90
2018-04-16T19:48:25.315Z,66.80
2018-04-16T19:50:53.819Z,66.80
2018-04-16T19:53:21.293Z,66.90
2018-04-16T19:55:54.424Z,67.10
2018-04-16T19:58:22.675Z,67.70
2018-04-16T20:00:51.965Z,68.10
2018-04-16T20:03:25.268Z,68.00
2018-04-16T20:05:52.736Z,68.40
2018-04-16T20:08:20.230Z,68.80
2018-04-16T20:10:55.088Z,69.00
2018-04-16T20:13:22.594Z,69.40
2018-04-16T20:15:50.842Z,69.90
2018-04-16T20:18:18.297Z,69.80
2018-04-16T20:20:45.813Z,70.10
2018-04-16T20:23:32.133Z,70.40
2018-04-16T20:25:59.590Z,70.60
2018-04-16T20:28:27.177Z,70.80
2018-04-16T20:30:54.670Z,71.00
2018-04-16T20:33:22.165Z,71.20
2018-04-16T20:35:49.649Z,71.50
2018-04-16T20:38:17.245Z,71.70
2018-04-16T20:40:45.484Z,72.00
2018-04-16T20:43:13.567Z,72.00
2018-04-16T20:45:41.841Z,72.30
2018-04-16T20:48:10.360Z,72.30
2018-04-16T20:50:37.895Z,72.30
2018-04-16T20:53:06.139Z,73.30
2018-04-16T20:55:33.596Z,72.60
2018-04-16T20:58:03.962Z,72.70
2018-04-16T21:00:32.182Z,73.10
2018-04-16T21:03:05.451Z,73.00
2018-04-16T21:05:32.930Z,73.10
2018-04-16T21:08:00.649Z,73.30
2018-04-16T21:10:28.872Z,73.50
2018-04-16T21:12:56.327Z,73.50
2018-04-16T21:15:24.388Z,73.80
2018-04-16T21:17:51.855Z,74.00
2018-04-16T21:20:19.623Z,74.10
2018-04-16T21:22:47.429Z,74.40
2018-04-16T21:25:15.045Z,74.40
2018-04-16T21:27:44.643Z,74.60
2018-04-16T21:30:12.593Z,74.60
2018-04-16T21:32:40.946Z,74.80
2018-04-16T21:35:09.276Z,75.00
2018-04-16T21:37:36.931Z,75.00
2018-04-16T21:40:04.420Z,75.10
2018-04-16T21:42:31.996Z,75.30
2018-04-16T21:44:59.997Z,75.60
2018-04-16T21:47:27.677Z,75.60
2018-04-16T21:49:55.200Z,75.90
2018-04-16T21:52:23.016Z,75.90
2018-04-16T21:54:51.033Z,76.10
2018-04-16T21:57:18.769Z,76.30
2018-04-16T21:59:49.592Z,76.40
2018-04-16T22:02:17.237Z,76.50
2018-04-16T22:04:44.942Z,76.80
2018-04-16T22:07:12.577Z,77.00
2018-04-16T22:09:40.223Z,77.20
2018-04-16T22:12:07.877Z,77.30
2018-04-16T22:14:35.359Z,77.40
2018-04-16T22:17:06.247Z,77.50
2018-04-16T22:19:34.480Z,77.90
2018-04-16T22:22:02.136Z,77.70
2018-04-16T22:24:29.913Z,77.90
2018-04-16T22:26:57.649Z,78.00
2018-04-16T22:29:28.761Z,78.00
2018-04-16T22:31:58.530Z,78.20
2018-04-16T22:34:26.274Z,78.20
2018-04-16T22:36:54.116Z,78.40
2018-04-16T22:39:21.703Z,78.60
2018-04-16T22:41:50.053Z,78.90
2018-04-16T22:44:17.794Z,78.90
2018-04-16T22:46:56.547Z,79.10
2018-04-16T22:49:24.327Z,79.10
2018-04-16T22:51:52.139Z,79.20
2018-04-16T22:54:25.166Z,79.40
2018-04-16T22:56:53.189Z,79.50
2018-04-16T22:59:20.771Z,80.50
2018-04-16T23:01:49.242Z,80.90
2018-04-16T23:04:17.559Z,81.10
2018-04-16T23:06:45.142Z,81.10
2018-04-16T23:09:16.562Z,81.30
2018-04-16T23:11:44.915Z,81.40
2018-04-16T23:14:13.556Z,81.40
2018-04-16T23:16:41.996Z,81.60
2018-04-16T23:19:10.645Z,81.60
2018-04-16T23:21:38.398Z,81.60
2018-04-16T23:24:06.103Z,81.70
2018-04-16T23:26:33.560Z,81.80
2018-04-16T23:29:08.944Z,81.90
2018-04-16T23:31:36.677Z,82.00
2018-04-16T23:34:04.315Z,82.10
2018-04-16T23:36:32.049Z,82.20
2018-04-16T23:38:59.728Z,82.40
2018-04-16T23:41:29.690Z,82.60
2018-04-16T23:43:57.179Z,82.60
2018-04-16T23:46:24.944Z,82.60
2018-04-16T23:48:53.493Z,82.90
2018-04-16T23:51:21.459Z,82.90
2018-04-16T23:53:49.140Z,82.80
2018-04-16T23:56:17.022Z,83.00
2018-04-16T23:58:44.588Z,83.10
